sensor_id;sensor_type;location;lat;lon;timestamp;pressure;altitude;pressure_sealevel;temperature;humidity
33949;BME280;20229;49.856;19.030;2023-02-19T00:00:24;101435.53;;;8.42;94.37
33949;BME280;20229;49.856;19.030;2023-02-19T00:05:34;101445.63;;;8.38;94.33
33949;BME280;20229;49.856;19.030;2023-02-19T00:10:50;101449.52;;;8.29;96.05
33949;BME280;20229;49.856;19.030;2023-02-19T00:15:55;101447.00;;;8.23;95.64
33949;BME280;20229;49.856;19.030;2023-02-19T00:21:18;101441.02;;;8.13;95.78
33949;BME280;20229;49.856;19.030;2023-02-19T00:26:22;101440.16;;;8.11;95.09
33949;BME280;20229;49.856;19.030;2023-02-19T00:31:44;101434.12;;;8.03;96.02
33949;BME280;20229;49.856;19.030;2023-02-19T00:36:48;101429.50;;;8.05;95.92
33949;BME280;20229;49.856;19.030;2023-02-19T00:42:12;101430.54;;;8.01;96.54
33949;BME280;20229;49.856;19.030;2023-02-19T00:47:15;101429.66;;;8.01;96.12
33949;BME280;20229;49.856;19.030;2023-02-19T00:52:39;101420.81;;;7.94;96.54
33949;BME280;20229;49.856;19.030;2023-02-19T00:57:42;101427.01;;;7.99;96.15
33949;BME280;20229;49.856;19.030;2023-02-19T01:03:05;101411.78;;;7.94;96.16
33949;BME280;20229;49.856;19.030;2023-02-19T01:08:08;101391.02;;;7.91;96.83
33949;BME280;20229;49.856;19.030;2023-02-19T01:13:33;101395.74;;;7.86;96.75
33949;BME280;20229;49.856;19.030;2023-02-19T01:18:36;101393.88;;;7.88;96.94
33949;BME280;20229;49.856;19.030;2023-02-19T01:23:58;101393.13;;;7.83;97.17
33949;BME280;20229;49.856;19.030;2023-02-19T01:29:02;101389.45;;;7.84;96.36
33949;BME280;20229;49.856;19.030;2023-02-19T01:34:24;101393.23;;;7.80;97.07
33949;BME280;20229;49.856;19.030;2023-02-19T01:39:31;101395.84;;;7.83;97.70
33949;BME280;20229;49.856;19.030;2023-02-19T01:45:11;101383.23;;;7.80;97.35
33949;BME280;20229;49.856;19.030;2023-02-19T01:50:04;101380.48;;;7.82;97.60
33949;BME280;20229;49.856;19.030;2023-02-19T01:55:16;101380.68;;;7.76;98.26
33949;BME280;20229;49.856;19.030;2023-02-19T02:00:20;101367.03;;;7.77;98.13
33949;BME280;20229;49.856;19.030;2023-02-19T02:05:51;101349.93;;;7.74;98.24
33949;BME280;20229;49.856;19.030;2023-02-19T02:10:56;101354.39;;;7.76;98.62
33949;BME280;20229;49.856;19.030;2023-02-19T02:26:44;101342.12;;;7.64;99.16
33949;BME280;20229;49.856;19.030;2023-02-19T02:31:56;101337.50;;;7.66;98.93
33949;BME280;20229;49.856;19.030;2023-02-19T02:37:01;101330.40;;;7.62;100.00
33949;BME280;20229;49.856;19.030;2023-02-19T02:42:05;101325.81;;;7.64;99.53
33949;BME280;20229;49.856;19.030;2023-02-19T02:47:27;101314.09;;;7.62;99.63
33949;BME280;20229;49.856;19.030;2023-02-19T02:52:49;101314.95;;;7.64;99.46
33949;BME280;20229;49.856;19.030;2023-02-19T02:58:07;101292.36;;;7.62;99.53
33949;BME280;20229;49.856;19.030;2023-02-19T03:03:12;101272.42;;;7.63;99.42
33949;BME280;20229;49.856;19.030;2023-02-19T03:08:27;101283.42;;;7.59;99.72
33949;BME280;20229;49.856;19.030;2023-02-19T03:13:34;101263.49;;;7.60;99.54
33949;BME280;20229;49.856;19.030;2023-02-19T03:18:53;101258.27;;;7.54;99.70
33949;BME280;20229;49.856;19.030;2023-02-19T03:24:12;101256.49;;;7.53;99.69
33949;BME280;20229;49.856;19.030;2023-02-19T03:29:31;101254.87;;;7.47;100.00
33949;BME280;20229;49.856;19.030;2023-02-19T03:34:43;101261.18;;;7.48;100.00
33949;BME280;20229;49.856;19.030;2023-02-19T03:39:51;101243.22;;;7.43;100.00
33949;BME280;20229;49.856;19.030;2023-02-19T03:50:18;101264.27;;;7.37;100.00
33949;BME280;20229;49.856;19.030;2023-02-19T04:00:49;101251.77;;;7.31;100.00
33949;BME280;20229;49.856;19.030;2023-02-19T04:06:04;101228.25;;;7.32;100.00
33949;BME280;20229;49.856;19.030;2023-02-19T04:11:09;101209.37;;;7.27;100.00
33949;BME280;20229;49.856;19.030;2023-02-19T04:16:23;101205.77;;;7.27;100.00
33949;BME280;20229;49.856;19.030;2023-02-19T04:21:29;101194.11;;;7.25;100.00
33949;BME280;20229;49.856;19.030;2023-02-19T04:26:33;101197.53;;;7.30;100.00
33949;BME280;20229;49.856;19.030;2023-02-19T04:31:48;101192.09;;;7.30;100.00
33949;BME280;20229;49.856;19.030;2023-02-19T04:36:51;101178.23;;;7.37;100.00
33949;BME280;20229;49.856;19.030;2023-02-19T04:42:13;101177.36;;;7.37;100.00
33949;BME280;20229;49.856;19.030;2023-02-19T04:47:16;101179.86;;;7.43;100.00
33949;BME280;20229;49.856;19.030;2023-02-19T04:52:39;101185.19;;;7.46;100.00
33949;BME280;20229;49.856;19.030;2023-02-19T04:57:43;101177.64;;;7.54;99.62
33949;BME280;20229;49.856;19.030;2023-02-19T05:03:05;101177.57;;;7.56;99.73
33949;BME280;20229;49.856;19.030;2023-02-19T05:08:09;101158.41;;;7.60;99.41
33949;BME280;20229;49.856;19.030;2023-02-19T05:13:32;101159.28;;;7.61;99.47
33949;BME280;20229;49.856;19.030;2023-02-19T05:18:35;101151.06;;;7.62;99.35
33949;BME280;20229;49.856;19.030;2023-02-19T05:23:57;101131.23;;;7.60;99.08
33949;BME280;20229;49.856;19.030;2023-02-19T05:29:01;101130.09;;;7.66;99.28
33949;BME280;20229;49.856;19.030;2023-02-19T05:34:23;101133.77;;;7.65;98.80
33949;BME280;20229;49.856;19.030;2023-02-19T05:39:27;101121.80;;;7.71;98.44
33949;BME280;20229;49.856;19.030;2023-02-19T05:44:49;101134.43;;;7.72;98.16
33949;BME280;20229;49.856;19.030;2023-02-19T05:49:53;101129.69;;;7.77;98.11
33949;BME280;20229;49.856;19.030;2023-02-19T05:55:16;101135.09;;;7.78;97.82
33949;BME280;20229;49.856;19.030;2023-02-19T06:00:19;101139.27;;;7.87;97.71
33949;BME280;20229;49.856;19.030;2023-02-19T06:05:41;101133.83;;;7.87;97.15
33949;BME280;20229;49.856;19.030;2023-02-19T06:10:45;101122.62;;;7.96;96.74
33949;BME280;20229;49.856;19.030;2023-02-19T06:16:07;101120.66;;;8.00;96.44
33949;BME280;20229;49.856;19.030;2023-02-19T06:21:11;101135.71;;;8.08;96.46
33949;BME280;20229;49.856;19.030;2023-02-19T06:26:34;101142.00;;;8.10;95.96
33949;BME280;20229;49.856;19.030;2023-02-19T06:31:37;101152.48;;;8.20;95.67
33949;BME280;20229;49.856;19.030;2023-02-19T06:36:59;101151.56;;;8.21;95.59
33949;BME280;20229;49.856;19.030;2023-02-19T06:42:03;101146.70;;;8.29;95.32
33949;BME280;20229;49.856;19.030;2023-02-19T06:47:25;101148.45;;;8.30;96.02
33949;BME280;20229;49.856;19.030;2023-02-19T06:52:28;101146.45;;;8.35;96.25
33949;BME280;20229;49.856;19.030;2023-02-19T06:57:51;101155.70;;;8.31;96.57
33949;BME280;20229;49.856;19.030;2023-02-19T07:02:54;101149.18;;;8.35;97.19
33949;BME280;20229;49.856;19.030;2023-02-19T07:08:17;101146.45;;;8.35;97.18
33949;BME280;20229;49.856;19.030;2023-02-19T07:13:22;101139.02;;;8.40;97.21
33949;BME280;20229;49.856;19.030;2023-02-19T07:18:43;101130.95;;;8.37;97.29
33949;BME280;20229;49.856;19.030;2023-02-19T07:23:46;101129.92;;;8.41;97.37
33949;BME280;20229;49.856;19.030;2023-02-19T07:29:09;101121.89;;;8.38;97.51
33949;BME280;20229;49.856;19.030;2023-02-19T07:34:13;101115.49;;;8.39;97.86
33949;BME280;20229;49.856;19.030;2023-02-19T07:39:37;101119.16;;;8.38;97.75
33949;BME280;20229;49.856;19.030;2023-02-19T07:44:40;101109.05;;;8.42;98.12
33949;BME280;20229;49.856;19.030;2023-02-19T07:50:12;101115.57;;;8.37;98.47
33949;BME280;20229;49.856;19.030;2023-02-19T07:55:15;101102.73;;;8.41;98.23
33949;BME280;20229;49.856;19.030;2023-02-19T08:00:38;101102.77;;;8.40;98.43
33949;BME280;20229;49.856;19.030;2023-02-19T08:05:42;101109.98;;;8.41;98.57
33949;BME280;20229;49.856;19.030;2023-02-19T08:11:08;101106.45;;;8.37;98.51
33949;BME280;20229;49.856;19.030;2023-02-19T08:16:24;101094.61;;;8.40;98.82
33949;BME280;20229;49.856;19.030;2023-02-19T08:21:34;101094.69;;;8.38;99.07
33949;BME280;20229;49.856;19.030;2023-02-19T08:26:37;101092.52;;;8.46;99.02
33949;BME280;20229;49.856;19.030;2023-02-19T08:32:03;101098.59;;;8.53;99.50
33949;BME280;20229;49.856;19.030;2023-02-19T08:37:06;101089.85;;;8.67;99.22
33949;BME280;20229;49.856;19.030;2023-02-19T08:42:31;101086.46;;;8.82;99.45
33949;BME280;20229;49.856;19.030;2023-02-19T08:47:34;101068.79;;;9.13;98.74
33949;BME280;20229;49.856;19.030;2023-02-19T08:53:01;101062.12;;;9.20;98.43
33949;BME280;20229;49.856;19.030;2023-02-19T08:58:04;101054.34;;;9.31;98.29
33949;BME280;20229;49.856;19.030;2023-02-19T09:03:24;101047.51;;;9.41;98.10
33949;BME280;20229;49.856;19.030;2023-02-19T09:08:28;101046.27;;;9.48;97.43
33949;BME280;20229;49.856;19.030;2023-02-19T09:13:50;101058.55;;;9.38;97.54
33949;BME280;20229;49.856;19.030;2023-02-19T09:18:53;101056.23;;;9.29;97.56
33949;BME280;20229;49.856;19.030;2023-02-19T09:24:16;101061.02;;;9.24;98.09
33949;BME280;20229;49.856;19.030;2023-02-19T09:29:23;101055.43;;;9.27;97.86
33949;BME280;20229;49.856;19.030;2023-02-19T09:34:46;101062.51;;;9.31;98.88
33949;BME280;20229;49.856;19.030;2023-02-19T09:39:49;101062.10;;;9.40;98.14
33949;BME280;20229;49.856;19.030;2023-02-19T09:45:23;101067.68;;;9.37;97.58
33949;BME280;20229;49.856;19.030;2023-02-19T09:50:33;101068.48;;;9.39;97.88
33949;BME280;20229;49.856;19.030;2023-02-19T09:55:41;101086.06;;;9.32;98.42
33949;BME280;20229;49.856;19.030;2023-02-19T10:00:48;101095.47;;;9.25;98.34
33949;BME280;20229;49.856;19.030;2023-02-19T10:06:16;101115.89;;;9.15;98.77
33949;BME280;20229;49.856;19.030;2023-02-19T10:11:14;101135.92;;;9.14;99.24
33949;BME280;20229;49.856;19.030;2023-02-19T10:16:29;101150.88;;;9.03;99.90
33949;BME280;20229;49.856;19.030;2023-02-19T10:21:33;101160.77;;;9.06;98.80
33949;BME280;20229;49.856;19.030;2023-02-19T10:26:56;101168.86;;;9.07;99.01
33949;BME280;20229;49.856;19.030;2023-02-19T10:37:21;101177.86;;;9.09;96.47
33949;BME280;20229;49.856;19.030;2023-02-19T10:42:25;101186.33;;;9.24;96.85
33949;BME280;20229;49.856;19.030;2023-02-19T10:47:48;101205.94;;;9.32;95.89
33949;BME280;20229;49.856;19.030;2023-02-19T10:52:54;101209.76;;;9.28;94.28
33949;BME280;20229;49.856;19.030;2023-02-19T10:58:23;101211.93;;;9.20;94.79
33949;BME280;20229;49.856;19.030;2023-02-19T11:03:30;101226.77;;;9.13;94.55
33949;BME280;20229;49.856;19.030;2023-02-19T11:13:55;101240.20;;;8.95;94.61
33949;BME280;20229;49.856;19.030;2023-02-19T11:19:04;101236.63;;;8.93;95.71
33949;BME280;20229;49.856;19.030;2023-02-19T11:29:30;101257.54;;;8.93;95.49
33949;BME280;20229;49.856;19.030;2023-02-19T11:34:37;101276.28;;;9.00;95.62
33949;BME280;20229;49.856;19.030;2023-02-19T11:39:56;101284.45;;;9.00;95.12
33949;BME280;20229;49.856;19.030;2023-02-19T12:01:03;101320.29;;;8.90;93.45
33949;BME280;20229;49.856;19.030;2023-02-19T12:11:39;101337.39;;;8.93;93.39
33949;BME280;20229;49.856;19.030;2023-02-19T12:22:01;101346.82;;;8.84;91.78
33949;BME280;20229;49.856;19.030;2023-02-19T12:27:33;101349.96;;;8.74;91.64
33949;BME280;20229;49.856;19.030;2023-02-19T12:32:37;101367.99;;;8.53;90.49
33949;BME280;20229;49.856;19.030;2023-02-19T12:53:41;101391.11;;;8.14;91.51
33949;BME280;20229;49.856;19.030;2023-02-19T12:58:52;101398.66;;;8.06;91.71
33949;BME280;20229;49.856;19.030;2023-02-19T13:04:12;101414.50;;;7.94;91.73
33949;BME280;20229;49.856;19.030;2023-02-19T13:09:21;101412.90;;;7.88;92.01
33949;BME280;20229;49.856;19.030;2023-02-19T13:14:36;101424.84;;;7.82;90.87
33949;BME280;20229;49.856;19.030;2023-02-19T13:19:44;101446.01;;;7.73;90.12
33949;BME280;20229;49.856;19.030;2023-02-19T13:24:49;101456.54;;;7.55;90.77
33949;BME280;20229;49.856;19.030;2023-02-19T13:40:34;101499.15;;;6.94;89.71
33949;BME280;20229;49.856;19.030;2023-02-19T13:45:41;101500.20;;;6.88;89.68
33949;BME280;20229;49.856;19.030;2023-02-19T13:50:46;101502.89;;;6.90;88.91
33949;BME280;20229;49.856;19.030;2023-02-19T13:55:50;101509.28;;;6.87;88.42
33949;BME280;20229;49.856;19.030;2023-02-19T14:00:54;101523.80;;;6.86;88.78
33949;BME280;20229;49.856;19.030;2023-02-19T14:06:00;101538.58;;;6.75;87.96
33949;BME280;20229;49.856;19.030;2023-02-19T14:11:04;101539.78;;;6.64;88.42
33949;BME280;20229;49.856;19.030;2023-02-19T14:21:40;101559.36;;;6.41;89.74
33949;BME280;20229;49.856;19.030;2023-02-19T14:26:49;101580.57;;;6.26;88.96
33949;BME280;20229;49.856;19.030;2023-02-19T14:31:52;101582.55;;;6.17;89.56
33949;BME280;20229;49.856;19.030;2023-02-19T14:37:18;101611.79;;;6.05;89.06
33949;BME280;20229;49.856;19.030;2023-02-19T14:42:25;101621.71;;;6.04;88.99
33949;BME280;20229;49.856;19.030;2023-02-19T14:47:43;101633.47;;;6.05;88.58
33949;BME280;20229;49.856;19.030;2023-02-19T14:52:51;101637.07;;;6.05;88.13
33949;BME280;20229;49.856;19.030;2023-02-19T14:58:15;101650.82;;;5.96;87.64
33949;BME280;20229;49.856;19.030;2023-02-19T15:03:31;101638.23;;;5.92;87.05
33949;BME280;20229;49.856;19.030;2023-02-19T15:08:41;101663.87;;;5.75;86.49
33949;BME280;20229;49.856;19.030;2023-02-19T15:13:51;101661.38;;;5.66;86.17
33949;BME280;20229;49.856;19.030;2023-02-19T15:19:04;101667.09;;;5.51;86.60
33949;BME280;20229;49.856;19.030;2023-02-19T15:24:09;101666.36;;;5.43;86.90
33949;BME280;20229;49.856;19.030;2023-02-19T15:29:27;101665.67;;;5.32;87.41
33949;BME280;20229;49.856;19.030;2023-02-19T15:39:54;101685.78;;;5.18;87.68
33949;BME280;20229;49.856;19.030;2023-02-19T15:45:12;101693.05;;;5.16;87.42
33949;BME280;20229;49.856;19.030;2023-02-19T15:50:29;101714.86;;;5.07;87.55
33949;BME280;20229;49.856;19.030;2023-02-19T15:55:42;101724.80;;;5.07;87.59
33949;BME280;20229;49.856;19.030;2023-02-19T16:00:51;101743.97;;;4.93;86.84
33949;BME280;20229;49.856;19.030;2023-02-19T16:06:06;101758.47;;;4.89;86.65
33949;BME280;20229;49.856;19.030;2023-02-19T16:11:26;101776.65;;;4.81;86.87
33949;BME280;20229;49.856;19.030;2023-02-19T16:16:35;101788.41;;;4.78;87.19
33949;BME280;20229;49.856;19.030;2023-02-19T16:21:42;101794.88;;;4.66;86.30
33949;BME280;20229;49.856;19.030;2023-02-19T16:26:46;101803.02;;;4.65;86.16
33949;BME280;20229;49.856;19.030;2023-02-19T16:32:04;101817.51;;;4.59;86.23
33949;BME280;20229;49.856;19.030;2023-02-19T16:42:28;101835.66;;;4.51;86.10
33949;BME280;20229;49.856;19.030;2023-02-19T16:47:33;101846.47;;;4.52;85.90
33949;BME280;20229;49.856;19.030;2023-02-19T16:52:56;101851.03;;;4.47;85.55
33949;BME280;20229;49.856;19.030;2023-02-19T16:58:00;101861.88;;;4.46;84.57
33949;BME280;20229;49.856;19.030;2023-02-19T17:03:23;101893.51;;;4.39;84.94
33949;BME280;20229;49.856;19.030;2023-02-19T17:08:36;101908.87;;;4.36;85.04
33949;BME280;20229;49.856;19.030;2023-02-19T17:13:50;101913.50;;;4.24;85.22
33949;BME280;20229;49.856;19.030;2023-02-19T17:18:54;101928.83;;;4.22;85.08
33949;BME280;20229;49.856;19.030;2023-02-19T17:24:19;101948.72;;;4.15;85.87
33949;BME280;20229;49.856;19.030;2023-02-19T17:29:22;101943.32;;;4.15;86.47
33949;BME280;20229;49.856;19.030;2023-02-19T17:34:46;101958.72;;;4.05;86.50
33949;BME280;20229;49.856;19.030;2023-02-19T17:39:51;101970.52;;;3.95;87.20
33949;BME280;20229;49.856;19.030;2023-02-19T17:45:19;101959.79;;;3.88;87.67
33949;BME280;20229;49.856;19.030;2023-02-19T17:50:27;101980.48;;;3.90;87.74
33949;BME280;20229;49.856;19.030;2023-02-19T17:55:45;101983.24;;;3.86;87.90
33949;BME280;20229;49.856;19.030;2023-02-19T18:00:48;101993.99;;;3.89;87.33
33949;BME280;20229;49.856;19.030;2023-02-19T18:06:11;102003.03;;;3.84;87.48
33949;BME280;20229;49.856;19.030;2023-02-19T18:11:15;101996.75;;;3.86;87.01
33949;BME280;20229;49.856;19.030;2023-02-19T18:16:44;102006.69;;;3.77;87.23
33949;BME280;20229;49.856;19.030;2023-02-19T18:21:48;102020.27;;;3.71;87.09
33949;BME280;20229;49.856;19.030;2023-02-19T18:27:04;102041.92;;;3.62;87.31
33949;BME280;20229;49.856;19.030;2023-02-19T18:32:07;102050.04;;;3.61;87.05
33949;BME280;20229;49.856;19.030;2023-02-19T18:37:30;102053.69;;;3.49;87.44
33949;BME280;20229;49.856;19.030;2023-02-19T18:42:35;102058.20;;;3.48;87.69
33949;BME280;20229;49.856;19.030;2023-02-19T18:47:56;102061.82;;;3.44;87.77
33949;BME280;20229;49.856;19.030;2023-02-19T18:52:59;102053.72;;;3.43;87.79
33949;BME280;20229;49.856;19.030;2023-02-19T18:58:22;102069.08;;;3.31;87.88
33949;BME280;20229;49.856;19.030;2023-02-19T19:03:30;102061.90;;;3.27;87.87
33949;BME280;20229;49.856;19.030;2023-02-19T19:08:48;102085.37;;;3.15;87.65
33949;BME280;20229;49.856;19.030;2023-02-19T19:13:52;102079.98;;;3.04;87.63
33949;BME280;20229;49.856;19.030;2023-02-19T19:19:14;102100.74;;;2.86;88.29
33949;BME280;20229;49.856;19.030;2023-02-19T19:24:18;102100.74;;;2.77;88.78
33949;BME280;20229;49.856;19.030;2023-02-19T19:29:40;102109.75;;;2.64;88.93
33949;BME280;20229;49.856;19.030;2023-02-19T19:34:43;102106.16;;;2.57;89.30
33949;BME280;20229;49.856;19.030;2023-02-19T19:40:07;102113.38;;;2.48;89.27
33949;BME280;20229;49.856;19.030;2023-02-19T19:45:12;102122.34;;;2.44;89.37
33949;BME280;20229;49.856;19.030;2023-02-19T19:50:32;102130.43;;;2.33;89.44
33949;BME280;20229;49.856;19.030;2023-02-19T19:55:36;102135.83;;;2.31;89.28
33949;BME280;20229;49.856;19.030;2023-02-19T20:00:58;102140.30;;;2.32;90.02
33949;BME280;20229;49.856;19.030;2023-02-19T20:06:04;102142.13;;;2.44;90.01
33949;BME280;20229;49.856;19.030;2023-02-19T20:11:24;102160.08;;;2.47;89.95
33949;BME280;20229;49.856;19.030;2023-02-19T20:16:28;102147.52;;;2.52;89.70
33949;BME280;20229;49.856;19.030;2023-02-19T20:21:51;102148.41;;;2.52;89.92
33949;BME280;20229;49.856;19.030;2023-02-19T20:26:57;102143.91;;;2.60;89.11
33949;BME280;20229;49.856;19.030;2023-02-19T20:32:16;102150.18;;;2.58;89.33
33949;BME280;20229;49.856;19.030;2023-02-19T20:37:22;102151.99;;;2.63;89.28
33949;BME280;20229;49.856;19.030;2023-02-19T20:42:42;102169.98;;;2.63;89.14
33949;BME280;20229;49.856;19.030;2023-02-19T20:47:45;102172.68;;;2.69;89.01
33949;BME280;20229;49.856;19.030;2023-02-19T20:53:07;102176.25;;;2.68;88.73
33949;BME280;20229;49.856;19.030;2023-02-19T20:58:11;102176.25;;;2.74;88.54
33949;BME280;20229;49.856;19.030;2023-02-19T21:03:33;102184.36;;;2.73;88.45
33949;BME280;20229;49.856;19.030;2023-02-19T21:08:37;102176.25;;;2.77;87.99
33949;BME280;20229;49.856;19.030;2023-02-19T21:13:59;102191.55;;;2.77;88.16
33949;BME280;20229;49.856;19.030;2023-02-19T21:19:02;102204.11;;;2.82;87.75
33949;BME280;20229;49.856;19.030;2023-02-19T21:24:25;102207.73;;;2.80;87.81
33949;BME280;20229;49.856;19.030;2023-02-19T21:29:28;102210.41;;;2.84;87.82
33949;BME280;20229;49.856;19.030;2023-02-19T21:34:51;102221.20;;;2.81;87.70
33949;BME280;20229;49.856;19.030;2023-02-19T21:39:55;102227.49;;;2.85;87.39
33949;BME280;20229;49.856;19.030;2023-02-19T21:45:17;102234.70;;;2.83;87.25
33949;BME280;20229;49.856;19.030;2023-02-19T21:50:21;102237.37;;;2.89;87.47
33949;BME280;20229;49.856;19.030;2023-02-19T21:55:43;102236.48;;;2.88;87.12
33949;BME280;20229;49.856;19.030;2023-02-19T22:00:50;102228.39;;;2.92;86.88
33949;BME280;20229;49.856;19.030;2023-02-19T22:06:09;102240.07;;;2.89;86.88
33949;BME280;20229;49.856;19.030;2023-02-19T22:11:12;102239.18;;;2.95;86.74
33949;BME280;20229;49.856;19.030;2023-02-19T22:16:34;102249.96;;;2.92;86.84
33949;BME280;20229;49.856;19.030;2023-02-19T22:21:41;102249.96;;;2.92;86.52
33949;BME280;20229;49.856;19.030;2023-02-19T22:27:00;102262.57;;;2.83;86.26
33949;BME280;20229;49.856;19.030;2023-02-19T22:32:04;102262.55;;;2.77;86.33
33949;BME280;20229;49.856;19.030;2023-02-19T22:37:26;102269.74;;;2.69;86.43
33949;BME280;20229;49.856;19.030;2023-02-19T22:42:31;102287.71;;;2.67;86.33
33949;BME280;20229;49.856;19.030;2023-02-19T22:47:55;102298.48;;;2.59;86.38
33949;BME280;20229;49.856;19.030;2023-02-19T22:53:04;102296.67;;;2.57;86.25
33949;BME280;20229;49.856;19.030;2023-02-19T22:58:18;102292.18;;;2.53;86.63
33949;BME280;20229;49.856;19.030;2023-02-19T23:03:21;102303.88;;;2.55;85.98
33949;BME280;20229;49.856;19.030;2023-02-19T23:08:44;102311.92;;;2.47;86.52
33949;BME280;20229;49.856;19.030;2023-02-19T23:13:47;102320.91;;;2.46;86.86
33949;BME280;20229;49.856;19.030;2023-02-19T23:19:12;102322.70;;;2.43;86.64
33949;BME280;20229;49.856;19.030;2023-02-19T23:24:17;102324.51;;;2.42;86.48
33949;BME280;20229;49.856;19.030;2023-02-19T23:29:35;102319.99;;;2.33;86.85
33949;BME280;20229;49.856;19.030;2023-02-19T23:34:38;102322.66;;;2.32;86.78
33949;BME280;20229;49.856;19.030;2023-02-19T23:40:02;102332.54;;;2.28;87.03
33949;BME280;20229;49.856;19.030;2023-02-19T23:45:05;102337.06;;;2.34;86.90
33949;BME280;20229;49.856;19.030;2023-02-19T23:50:27;102354.12;;;2.36;87.06
33949;BME280;20229;49.856;19.030;2023-02-19T23:55:30;102335.28;;;2.37;86.79
